Time;durP1;ratioP1;P1;durP2;ratioP2;P2;SDS_P1;SDS_P2;PMS_P1;PMS_P2;Temp;Humidity;BMP_temperature;BMP_pressure;BME280_temperature;BME280_humidity;BME280_pressure;Samples;Min_cycle;Max_cycle;Signal;HPM_P1;HPM_P2
2022/12/28 00:01:29;;;;;;;2.80;2.40;;;18.50;59.40;;;;;;5060592;28;20629;-68
2022/12/28 00:03:58;;;;;;;3.35;2.75;;;18.60;59.40;;;;;;5053026;28;20288;-68
2022/12/28 00:06:25;;;;;;;3.00;2.70;;;18.60;59.40;;;;;;5069478;28;20179;-67
2022/12/28 00:08:56;;;;;;;2.83;2.58;;;18.50;59.30;;;;;;5051929;28;20191;-68
2022/12/28 00:11:24;;;;;;;3.28;2.45;;;18.60;59.40;;;;;;5069218;28;20183;-67
2022/12/28 00:13:50;;;;;;;3.20;2.60;;;18.50;59.30;;;;;;5065834;28;20218;-67
2022/12/28 00:16:38;;;;;;;3.13;2.50;;;18.60;59.40;;;;;;5050040;28;20175;-68
2022/12/28 00:19:10;;;;;;;2.70;2.38;;;18.50;59.40;;;;;;5060044;28;20603;-68
2022/12/28 00:21:36;;;;;;;2.47;2.17;;;18.50;59.30;;;;;;5044304;28;20294;-68
2022/12/28 00:24:03;;;;;;;2.10;1.95;;;18.50;59.30;;;;;;5050907;28;20281;-68
2022/12/28 00:26:32;;;;;;;4.18;2.50;;;18.60;59.40;;;;;;5044050;28;20197;-68
2022/12/28 00:28:59;;;;;;;2.70;2.50;;;18.60;59.40;;;;;;5064855;28;20748;-68
2022/12/28 00:31:25;;;;;;;2.58;2.10;;;18.60;59.40;;;;;;5051598;28;20197;-67
2022/12/28 00:33:51;;;;;;;2.35;2.15;;;18.50;59.20;;;;;;5035702;28;20207;-68
2022/12/28 00:36:17;;;;;;;2.67;2.42;;;18.50;59.10;;;;;;5068606;28;20182;-67
2022/12/28 00:38:43;;;;;;;3.15;2.55;;;18.60;59.20;;;;;;5064821;28;20215;-67
2022/12/28 00:41:09;;;;;;;2.03;1.90;;;18.60;59.20;;;;;;5052183;28;20189;-68
2022/12/28 00:43:36;;;;;;;2.80;2.30;;;18.60;59.20;;;;;;5043159;28;20202;-67
2022/12/28 00:46:02;;;;;;;2.33;2.13;;;18.50;59.10;;;;;;5060628;28;20182;-68
2022/12/28 00:48:28;;;;;;;3.08;2.20;;;18.60;59.20;;;;;;5044608;28;20185;-68
2022/12/28 00:51:02;;;;;;;1.85;1.67;;;18.60;59.20;;;;;;5068815;28;20182;-68
2022/12/28 00:53:27;;;;;;;2.40;2.17;;;18.60;59.30;;;;;;5068405;28;20206;-68
2022/12/28 00:55:53;;;;;;;2.20;2.00;;;18.60;59.20;;;;;;5068893;28;20269;-68
2022/12/28 00:58:19;;;;;;;1.85;1.73;;;18.60;59.20;;;;;;5076356;28;20187;-68
2022/12/28 01:00:45;;;;;;;2.50;2.20;;;18.60;59.20;;;;;;5035489;28;20197;-69
2022/12/28 01:03:10;;;;;;;1.90;1.80;;;18.60;59.20;;;;;;5077763;28;20237;-68
2022/12/28 01:05:38;;;;;;;2.10;1.90;;;18.60;59.20;;;;;;5050948;28;20187;-68
2022/12/28 01:08:07;;;;;;;2.25;2.00;;;18.60;59.20;;;;;;5048237;28;20237;-68
2022/12/28 01:10:33;;;;;;;2.08;1.73;;;18.60;59.20;;;;;;5083053;28;20190;-68
2022/12/28 01:12:59;;;;;;;2.20;2.00;;;18.60;59.20;;;;;;5047419;28;20211;-68
2022/12/28 01:15:25;;;;;;;1.88;1.77;;;18.60;59.20;;;;;;5074472;28;20189;-68
2022/12/28 01:17:50;;;;;;;1.75;1.65;;;18.60;59.20;;;;;;5059803;28;20187;-68
2022/12/28 01:20:16;;;;;;;2.38;2.00;;;18.60;59.20;;;;;;5062972;28;20213;-68
2022/12/28 01:22:42;;;;;;;2.20;2.00;;;18.60;59.30;;;;;;5039685;28;20758;-68
2022/12/28 01:25:08;;;;;;;2.40;1.95;;;18.60;59.20;;;;;;5056736;28;20618;-67
2022/12/28 01:27:36;;;;;;;2.00;1.67;;;18.60;59.20;;;;;;5051475;28;20182;-68
2022/12/28 01:30:02;;;;;;;2.70;2.13;;;18.60;59.30;;;;;;5064190;28;20670;-67
2022/12/28 01:32:28;;;;;;;2.40;1.80;;;18.60;59.20;;;;;;5051035;28;20206;-68
2022/12/28 01:34:54;;;;;;;1.83;1.70;;;18.60;59.20;;;;;;5064742;28;20191;-68
2022/12/28 01:37:20;;;;;;;1.88;1.70;;;18.60;59.20;;;;;;5064367;28;20203;-67
2022/12/28 01:39:46;;;;;;;2.17;1.98;;;18.60;59.20;;;;;;5033819;28;20217;-68
2022/12/28 01:42:18;;;;;;;2.55;1.70;;;18.60;59.20;;;;;;5067812;28;20213;-68
2022/12/28 01:44:50;;;;;;;2.60;2.03;;;18.60;59.20;;;;;;5047861;28;20191;-68
2022/12/28 01:47:23;;;;;;;2.10;1.90;;;18.60;59.20;;;;;;5064517;28;20253;-68
2022/12/28 01:50:02;;;;;;;1.50;1.40;;;18.60;59.20;;;;;;5063550;28;20194;-68
2022/12/28 01:52:53;;;;;;;2.63;1.90;;;18.60;59.20;;;;;;5063108;28;20304;-68
2022/12/28 01:55:27;;;;;;;1.95;1.80;;;18.60;59.20;;;;;;5067982;28;20202;-67
2022/12/28 01:58:19;;;;;;;4.05;1.77;;;18.60;59.20;;;;;;5049873;28;20216;-68
2022/12/28 02:00:45;;;;;;;1.85;1.65;;;18.60;59.20;;;;;;5067836;28;20228;-68
2022/12/28 02:03:18;;;;;;;2.03;1.83;;;18.60;59.20;;;;;;5051918;28;20230;-68
2022/12/28 02:05:51;;;;;;;2.10;1.70;;;18.60;59.20;;;;;;5056098;28;20245;-68
2022/12/28 02:09:00;;;;;;;1.83;1.73;;;18.60;59.20;;;;;;5083432;28;20194;-68
2022/12/28 02:11:29;;;;;;;1.85;1.60;;;18.60;59.20;;;;;;5021528;28;20194;-68
2022/12/28 02:13:57;;;;;;;2.03;1.70;;;18.60;59.20;;;;;;5049610;28;20206;-67
2022/12/28 02:16:23;;;;;;;1.90;1.60;;;18.60;59.20;;;;;;5041848;28;20209;-67
2022/12/28 02:18:50;;;;;;;1.70;1.60;;;18.60;59.20;;;;;;5047148;28;20203;-67
2022/12/28 02:21:43;;;;;;;1.98;1.45;;;18.60;59.20;;;;;;5046190;28;20560;-67
2022/12/28 02:24:30;;;;;;;1.67;1.58;;;18.60;59.20;;;;;;5045130;28;20209;-67
2022/12/28 02:27:22;;;;;;;1.77;1.60;;;18.60;59.20;;;;;;5044548;28;20209;-67
2022/12/28 02:30:09;;;;;;;2.00;1.90;;;18.60;59.20;;;;;;5065750;28;20182;-67
2022/12/28 02:33:06;;;;;;;2.15;1.85;;;18.60;59.20;;;;;;5049953;28;20206;-67
2022/12/28 02:35:57;;;;;;;2.20;1.50;;;18.60;59.20;;;;;;5066386;28;20191;-68
2022/12/28 02:38:36;;;;;;;1.48;1.30;;;18.60;59.20;;;;;;5049246;28;20227;-67
2022/12/28 02:41:09;;;;;;;1.60;1.50;;;18.60;59.30;;;;;;5050157;28;20182;-68
2022/12/28 02:43:36;;;;;;;1.40;1.30;;;18.60;59.20;;;;;;5033796;28;20234;-68
2022/12/28 02:52:21;;;;;;;2.40;1.60;;;18.60;59.30;;;;;;5055621;28;20224;-68
2022/12/28 02:58:51;;;;;;;1.50;1.40;;;18.60;59.30;;;;;;5037827;28;20723;-68
2022/12/28 03:01:32;;;;;;;1.50;1.40;;;18.60;59.30;;;;;;5053936;28;20239;-68
2022/12/28 03:04:29;;;;;;;1.52;1.42;;;18.60;59.40;;;;;;5046365;28;20471;-68
2022/12/28 03:10:25;;;;;;;2.03;1.70;;;18.60;59.40;;;;;;5066717;28;20181;-67
2022/12/28 03:13:41;;;;;;;1.95;1.35;;;18.60;59.50;;;;;;5036953;28;20224;-68
2022/12/28 03:16:05;;;;;;;1.50;1.40;;;18.60;59.40;;;;;;5041905;28;20193;-67
2022/12/28 03:33:04;;;;;;;1.42;1.33;;;18.60;59.40;;;;;;5055540;28;20226;-68
2022/12/28 03:35:49;;;;;;;1.42;1.23;;;18.60;59.40;;;;;;5042728;28;20226;-67
2022/12/28 03:38:34;;;;;;;1.45;1.35;;;18.70;59.40;;;;;;5040440;28;20281;-67
2022/12/28 03:41:11;;;;;;;1.70;1.60;;;18.70;59.50;;;;;;5069959;28;20189;-68
2022/12/28 03:43:54;;;;;;;1.52;1.42;;;18.70;59.50;;;;;;5052897;28;20263;-68
2022/12/28 03:46:49;;;;;;;1.60;1.50;;;18.70;59.50;;;;;;5053167;28;20645;-67
2022/12/28 03:49:16;;;;;;;1.30;1.20;;;18.70;59.50;;;;;;5046736;28;20217;-68
2022/12/28 03:51:46;;;;;;;1.88;1.60;;;18.70;59.50;;;;;;5035936;28;20190;-67
2022/12/28 03:54:16;;;;;;;1.30;1.20;;;18.70;59.50;;;;;;5069765;28;20214;-67
2022/12/28 03:56:49;;;;;;;1.75;1.40;;;18.70;59.60;;;;;;5051391;28;20191;-68
2022/12/28 03:59:16;;;;;;;1.52;1.42;;;18.70;59.50;;;;;;5068671;28;20202;-68
2022/12/28 04:01:46;;;;;;;1.40;1.30;;;18.70;59.50;;;;;;5053162;28;20186;-67
2022/12/28 04:04:12;;;;;;;1.42;1.20;;;18.70;59.50;;;;;;5049639;28;20233;-68
2022/12/28 04:06:38;;;;;;;1.10;1.00;;;18.70;59.50;;;;;;5053338;28;20191;-68
2022/12/28 04:09:05;;;;;;;1.27;1.17;;;18.70;59.50;;;;;;5048846;28;20219;-68
2022/12/28 04:11:35;;;;;;;1.60;1.25;;;18.70;59.40;;;;;;5059234;28;20273;-68
2022/12/28 04:14:04;;;;;;;1.42;1.33;;;18.70;59.50;;;;;;5073942;23;20222;-69
2022/12/28 04:16:33;;;;;;;1.20;1.10;;;18.70;59.50;;;;;;5065024;28;20190;-69
2022/12/28 04:19:00;;;;;;;1.42;1.30;;;18.70;59.50;;;;;;5017742;28;20211;-69
2022/12/28 04:21:28;;;;;;;2.13;1.00;;;18.70;59.50;;;;;;5067483;28;20183;-69
2022/12/28 04:23:54;;;;;;;2.17;1.27;;;18.70;59.50;;;;;;5029089;28;20207;-68
2022/12/28 04:26:21;;;;;;;1.42;1.33;;;18.70;59.50;;;;;;5070547;28;20240;-68
2022/12/28 04:28:50;;;;;;;1.15;1.05;;;18.70;59.50;;;;;;5020751;28;20183;-68
2022/12/28 04:31:42;;;;;;;1.30;1.20;;;18.70;59.40;;;;;;5034741;28;20217;-68
2022/12/28 04:34:11;;;;;;;1.30;1.10;;;18.70;59.50;;;;;;5043154;28;20256;-69
2022/12/28 04:36:41;;;;;;;1.52;1.38;;;18.70;59.40;;;;;;5028657;28;20274;-68
2022/12/28 04:39:11;;;;;;;1.48;1.33;;;18.70;59.50;;;;;;5039452;28;20206;-68
2022/12/28 04:41:37;;;;;;;1.25;1.10;;;18.70;59.40;;;;;;5035171;28;20196;-68
2022/12/28 04:44:03;;;;;;;1.73;1.20;;;18.70;59.50;;;;;;5040150;28;20267;-69
2022/12/28 04:46:29;;;;;;;1.33;1.30;;;18.70;59.40;;;;;;5033316;28;20178;-69
2022/12/28 04:48:54;;;;;;;1.00;1.00;;;18.70;59.50;;;;;;5020491;28;20186;-68
2022/12/28 04:51:27;;;;;;;1.00;1.00;;;18.70;59.50;;;;;;5037053;28;20194;-68
2022/12/28 04:53:54;;;;;;;1.38;1.27;;;18.70;59.50;;;;;;5053511;28;20214;-69
2022/12/28 04:56:22;;;;;;;1.45;1.35;;;18.70;59.50;;;;;;5045366;28;20182;-68
2022/12/28 04:58:56;;;;;;;1.10;1.05;;;18.70;59.50;;;;;;5036713;28;20301;-69
2022/12/28 05:01:21;;;;;;;1.10;1.00;;;18.70;59.50;;;;;;5036967;28;20229;-69
2022/12/28 05:03:49;;;;;;;1.52;1.33;;;18.70;59.50;;;;;;5028223;28;20233;-68
2022/12/28 05:06:20;;;;;;;1.30;1.20;;;18.70;59.50;;;;;;5046879;28;20198;-68
2022/12/28 05:08:47;;;;;;;1.55;1.10;;;18.70;59.50;;;;;;5035240;28;20222;-68
2022/12/28 05:11:22;;;;;;;0.98;0.93;;;18.70;59.60;;;;;;5033457;28;20184;-68
2022/12/28 05:13:49;;;;;;;2.25;1.20;;;18.70;59.50;;;;;;5035379;28;20220;-69
2022/12/28 05:16:19;;;;;;;1.60;1.42;;;18.70;59.50;;;;;;5054111;28;20182;-68
2022/12/28 05:18:44;;;;;;;1.30;1.17;;;18.70;59.50;;;;;;5036013;28;20277;-69
2022/12/28 05:21:18;;;;;;;1.50;1.40;;;18.70;59.60;;;;;;5045883;28;20799;-68
2022/12/28 05:23:44;;;;;;;1.52;1.23;;;18.70;59.50;;;;;;5044522;28;20211;-68
2022/12/28 05:26:13;;;;;;;1.40;1.30;;;18.70;59.50;;;;;;5036196;28;20245;-68
2022/12/28 05:28:40;;;;;;;1.60;1.48;;;18.80;59.60;;;;;;5053691;28;20212;-69
2022/12/28 05:31:11;;;;;;;1.10;1.00;;;18.70;59.40;;;;;;5036525;28;20178;-69
2022/12/28 05:33:37;;;;;;;1.20;1.10;;;18.70;59.50;;;;;;5052996;28;20221;-69
2022/12/28 05:36:24;;;;;;;1.48;1.20;;;18.70;59.50;;;;;;5028965;28;20183;-69
2022/12/28 05:38:51;;;;;;;1.30;1.20;;;18.70;59.40;;;;;;5035569;28;20210;-69
2022/12/28 05:41:22;;;;;;;0.80;0.80;;;18.70;59.50;;;;;;5019421;28;20194;-69
2022/12/28 05:43:49;;;;;;;1.73;0.90;;;18.70;59.40;;;;;;5020304;28;20210;-69
2022/12/28 05:46:20;;;;;;;1.00;1.00;;;18.70;59.50;;;;;;5032809;28;20187;-69
2022/12/28 05:48:47;;;;;;;1.05;1.00;;;18.70;59.50;;;;;;5035715;28;20186;-68
2022/12/28 05:51:16;;;;;;;1.00;1.00;;;18.70;59.40;;;;;;5063549;28;20241;-68
2022/12/28 05:53:43;;;;;;;1.27;1.17;;;18.70;59.50;;;;;;5032346;28;20221;-69
2022/12/28 05:56:19;;;;;;;1.00;1.00;;;18.70;59.50;;;;;;5017083;28;20179;-69
2022/12/28 05:58:51;;;;;;;1.48;1.10;;;18.70;59.40;;;;;;5036383;28;20315;-69
2022/12/28 06:01:21;;;;;;;1.20;1.10;;;18.70;59.50;;;;;;5035804;28;20186;-69
2022/12/28 06:03:52;;;;;;;0.88;0.88;;;18.80;59.60;;;;;;5053098;28;20207;-69
2022/12/28 06:06:19;;;;;;;1.02;0.90;;;18.70;59.50;;;;;;5035805;28;20194;-69
2022/12/28 06:08:47;;;;;;;1.33;0.82;;;18.70;59.40;;;;;;5035244;28;20186;-69
2022/12/28 06:11:18;;;;;;;1.58;1.10;;;18.70;59.40;;;;;;5035411;28;20193;-69
2022/12/28 06:13:45;;;;;;;1.00;1.00;;;18.80;59.60;;;;;;5018731;28;20240;-69
2022/12/28 06:16:18;;;;;;;1.08;0.90;;;18.70;59.40;;;;;;5019007;28;20279;-69
2022/12/28 06:18:45;;;;;;;0.90;0.90;;;18.70;59.40;;;;;;5035113;28;20190;-69
2022/12/28 06:21:18;;;;;;;1.10;1.00;;;18.80;59.50;;;;;;5035141;28;20193;-69
2022/12/28 06:23:45;;;;;;;0.95;0.90;;;18.70;59.40;;;;;;5034958;28;20251;-69
2022/12/28 06:26:16;;;;;;;1.27;1.17;;;18.70;59.40;;;;;;5034947;28;20186;-69
2022/12/28 06:28:42;;;;;;;1.15;1.05;;;18.70;59.40;;;;;;5040960;28;20288;-68
2022/12/28 06:31:17;;;;;;;1.23;1.02;;;18.70;59.40;;;;;;5052818;28;20187;-69
2022/12/28 06:33:43;;;;;;;0.90;0.90;;;18.80;59.50;;;;;;5024574;28;20209;-68
2022/12/28 06:36:29;;;;;;;1.60;0.90;;;18.80;59.50;;;;;;5034850;28;20699;-69
2022/12/28 06:38:58;;;;;;;1.13;1.02;;;18.70;59.40;;;;;;5018038;28;20240;-69
2022/12/28 06:41:25;;;;;;;1.13;1.02;;;18.80;59.50;;;;;;5026974;28;20209;-68
2022/12/28 06:43:52;;;;;;;1.00;1.00;;;18.70;59.40;;;;;;5034567;28;20202;-68
2022/12/28 06:46:20;;;;;;;1.17;1.08;;;18.70;59.40;;;;;;5052778;28;20186;-69
2022/12/28 06:48:46;;;;;;;0.93;0.93;;;18.70;59.50;;;;;;5051375;28;20243;-69
2022/12/28 06:51:16;;;;;;;1.20;1.10;;;18.80;59.60;;;;;;5052456;28;20208;-69
2022/12/28 06:53:43;;;;;;;1.10;1.05;;;18.80;59.50;;;;;;5034515;28;20217;-69
2022/12/28 06:56:14;;;;;;;1.02;1.00;;;18.70;59.40;;;;;;5034925;28;20282;-69
2022/12/28 06:58:41;;;;;;;1.00;1.00;;;18.70;59.40;;;;;;5034451;28;20254;-68
2022/12/28 07:01:23;;;;;;;0.95;0.85;;;18.80;59.50;;;;;;5034561;28;20186;-69
2022/12/28 07:03:52;;;;;;;1.73;1.30;;;18.80;59.60;;;;;;5052338;28;20210;-69
2022/12/28 07:06:22;;;;;;;1.65;1.55;;;18.80;59.60;;;;;;5034527;28;20183;-69
2022/12/28 07:08:48;;;;;;;1.40;1.30;;;18.80;59.40;;;;;;5033766;28;20217;-69
2022/12/28 07:11:20;;;;;;;1.30;1.20;;;18.80;59.50;;;;;;5051994;28;20332;-68
2022/12/28 07:13:47;;;;;;;1.67;1.05;;;18.80;59.40;;;;;;5037899;28;20218;-69
2022/12/28 07:16:17;;;;;;;1.20;1.10;;;18.80;59.50;;;;;;5040668;28;20221;-69
2022/12/28 07:18:44;;;;;;;0.88;0.75;;;18.80;59.40;;;;;;5034371;28;20238;-69
2022/12/28 07:21:14;;;;;;;0.95;0.95;;;18.80;59.40;;;;;;5033306;28;20197;-69
2022/12/28 07:23:41;;;;;;;1.30;1.20;;;18.80;59.40;;;;;;5034551;28;20209;-69
2022/12/28 07:26:13;;;;;;;1.33;1.20;;;18.80;59.60;;;;;;5042409;28;20573;-69
2022/12/28 07:28:42;;;;;;;1.20;1.10;;;18.80;59.50;;;;;;5028948;28;20182;-68
2022/12/28 07:31:18;;;;;;;1.55;1.45;;;18.80;59.40;;;;;;5037080;28;20187;-69
2022/12/28 07:33:45;;;;;;;1.25;1.15;;;18.80;59.50;;;;;;5025838;28;20586;-69
2022/12/28 07:36:15;;;;;;;1.33;1.23;;;18.80;59.40;;;;;;5037865;28;20274;-68
2022/12/28 07:38:42;;;;;;;1.52;1.30;;;18.80;59.40;;;;;;5030794;28;20300;-68
2022/12/28 07:41:24;;;;;;;1.77;1.33;;;18.80;59.50;;;;;;5021073;28;20182;-69
2022/12/28 07:43:50;;;;;;;2.42;1.50;;;18.80;59.40;;;;;;5050547;28;20256;-69
2022/12/28 07:46:30;;;;;;;1.20;1.10;;;18.80;59.50;;;;;;5034011;28;20208;-69
2022/12/28 07:48:56;;;;;;;1.42;1.33;;;18.80;59.40;;;;;;5049377;28;20198;-69
2022/12/28 07:51:26;;;;;;;1.58;1.33;;;18.80;59.40;;;;;;5051347;28;20627;-69
2022/12/28 07:53:54;;;;;;;1.23;1.10;;;18.80;59.40;;;;;;5034152;28;20246;-69
2022/12/28 07:56:22;;;;;;;1.40;1.30;;;18.80;59.40;;;;;;5051697;28;20182;-69
2022/12/28 07:58:59;;;;;;;1.42;1.20;;;18.80;59.40;;;;;;5033397;28;20186;-69
2022/12/28 08:01:30;;;;;;;1.38;1.27;;;18.80;59.40;;;;;;5034143;28;20265;-69
2022/12/28 08:03:59;;;;;;;1.52;1.42;;;18.80;59.40;;;;;;5033729;28;20202;-69
2022/12/28 08:06:27;;;;;;;2.70;1.40;;;18.80;59.60;;;;;;5036346;28;20184;-69
2022/12/28 08:08:57;;;;;;;1.25;1.15;;;18.80;60.00;;;;;;5031824;28;20186;-69
2022/12/28 08:11:26;;;;;;;1.30;1.20;;;18.80;59.40;;;;;;5025659;28;20191;-69
2022/12/28 08:13:54;;;;;;;1.42;1.33;;;18.80;59.30;;;;;;5033468;28;20218;-69
2022/12/28 08:16:23;;;;;;;1.63;1.45;;;18.80;59.40;;;;;;5051774;28;20183;-69
2022/12/28 08:18:49;;;;;;;1.35;1.25;;;18.80;59.40;;;;;;5023551;28;20191;-69
2022/12/28 08:21:20;;;;;;;1.58;1.48;;;18.80;59.30;;;;;;5035017;28;20646;-69
2022/12/28 08:23:46;;;;;;;1.20;1.10;;;18.80;59.40;;;;;;5046780;28;20210;-69
2022/12/28 08:26:15;;;;;;;1.33;1.23;;;18.80;59.40;;;;;;5070814;28;20225;-69
2022/12/28 08:28:43;;;;;;;1.30;1.20;;;18.80;59.40;;;;;;5020584;28;20220;-68
2022/12/28 08:31:14;;;;;;;1.08;1.02;;;18.80;59.40;;;;;;5029549;28;20250;-69
2022/12/28 08:33:41;;;;;;;1.40;1.30;;;18.80;59.30;;;;;;5037121;28;20217;-70
2022/12/28 08:36:08;;;;;;;1.20;1.10;;;18.80;59.40;;;;;;5037030;28;20259;-69
2022/12/28 08:38:35;;;;;;;1.50;1.23;;;18.80;59.40;;;;;;5054085;28;20281;-69
2022/12/28 08:41:04;;;;;;;1.30;1.20;;;18.80;59.40;;;;;;5037262;28;20187;-69
2022/12/28 08:43:32;;;;;;;1.55;1.15;;;18.80;59.40;;;;;;5046934;28;20253;-69
2022/12/28 08:46:06;;;;;;;1.35;1.25;;;18.80;59.40;;;;;;5035652;28;20186;-69
2022/12/28 08:48:33;;;;;;;0.98;0.98;;;18.80;59.40;;;;;;5054609;28;20190;-69
2022/12/28 08:51:06;;;;;;;0.95;0.90;;;18.80;59.40;;;;;;5035777;28;20195;-70
2022/12/28 08:53:33;;;;;;;1.50;1.40;;;18.80;59.40;;;;;;5063392;28;20216;-70
2022/12/28 08:56:16;;;;;;;1.65;1.33;;;18.80;59.40;;;;;;5048256;28;20184;-70
2022/12/28 08:58:43;;;;;;;1.83;1.33;;;18.90;59.60;;;;;;5040362;28;20185;-70
2022/12/28 09:01:20;;;;;;;1.40;1.20;;;18.90;59.50;;;;;;5046491;28;20244;-70
2022/12/28 09:03:49;;;;;;;1.40;1.30;;;18.80;59.40;;;;;;5026793;28;20222;-70
2022/12/28 09:06:19;;;;;;;1.23;1.13;;;18.80;59.40;;;;;;5063425;28;20244;-70
2022/12/28 09:08:50;;;;;;;1.30;1.20;;;18.90;59.40;;;;;;5052536;28;20189;-70
2022/12/28 09:11:16;;;;;;;1.13;1.02;;;18.80;59.40;;;;;;5041704;28;20244;-70
2022/12/28 09:13:42;;;;;;;1.15;1.00;;;18.90;59.40;;;;;;5060784;28;20297;-70
2022/12/28 09:16:11;;;;;;;1.25;1.15;;;18.80;59.40;;;;;;5036428;28;20246;-70
2022/12/28 09:18:39;;;;;;;1.35;1.25;;;18.90;59.40;;;;;;5036389;28;20258;-69
2022/12/28 09:21:15;;;;;;;1.77;1.50;;;18.90;59.40;;;;;;5059375;28;20205;-70
2022/12/28 09:23:43;;;;;;;1.30;1.20;;;18.90;59.50;;;;;;5036368;28;20210;-70
2022/12/28 09:26:19;;;;;;;1.52;1.30;;;18.90;59.50;;;;;;5049667;28;20183;-70
2022/12/28 09:28:51;;;;;;;1.50;1.20;;;18.90;59.40;;;;;;5030862;28;20182;-70
2022/12/28 09:31:19;;;;;;;1.77;1.40;;;18.90;59.40;;;;;;5036032;28;20197;-70
2022/12/28 09:33:58;;;;;;;1.30;1.20;;;18.90;59.40;;;;;;5038529;28;20241;-70
2022/12/28 09:36:32;;;;;;;1.27;0.98;;;18.90;59.40;;;;;;5036083;28;20194;-70
2022/12/28 09:39:01;;;;;;;1.23;1.13;;;18.90;59.40;;;;;;5035805;28;20202;-70
2022/12/28 09:41:40;;;;;;;1.40;1.30;;;18.90;59.40;;;;;;5052487;28;20179;-70
2022/12/28 09:44:18;;;;;;;1.20;1.10;;;18.90;59.30;;;;;;5019258;28;20242;-70
2022/12/28 09:47:16;;;;;;;1.08;1.08;;;18.90;59.30;;;;;;5044623;28;20225;-70
2022/12/28 09:50:02;;;;;;;1.70;1.27;;;18.90;59.40;;;;;;5031546;28;20194;-70
2022/12/28 09:52:47;;;;;;;1.40;1.30;;;19.00;59.50;;;;;;5018995;28;20214;-69
2022/12/28 09:55:16;;;;;;;1.42;1.08;;;18.90;59.40;;;;;;5040297;28;20194;-69
2022/12/28 09:57:48;;;;;;;1.40;1.20;;;18.90;59.30;;;;;;5039747;28;20219;-70
2022/12/28 10:00:19;;;;;;;1.30;1.20;;;18.90;59.30;;;;;;5056838;28;20210;-70
2022/12/28 10:02:57;;;;;;;1.60;1.30;;;18.90;59.30;;;;;;5056632;28;20210;-70
2022/12/28 10:05:24;;;;;;;1.40;1.30;;;18.90;59.40;;;;;;5046953;28;20198;-70
2022/12/28 10:07:53;;;;;;;1.20;1.10;;;18.90;59.30;;;;;;5032228;28;20256;-70
2022/12/28 10:10:22;;;;;;;1.30;1.20;;;18.90;59.30;;;;;;5019031;28;20209;-70
2022/12/28 10:12:49;;;;;;;1.30;1.20;;;18.90;59.30;;;;;;5045050;22;20205;-66
2022/12/28 10:15:16;;;;;;;1.20;1.10;;;19.00;59.40;;;;;;5070279;28;20189;-67
2022/12/28 10:17:43;;;;;;;1.27;1.15;;;18.90;59.30;;;;;;5072897;28;20182;-66
2022/12/28 10:20:18;;;;;;;1.45;1.35;;;19.00;59.40;;;;;;5054541;28;20216;-67
2022/12/28 10:22:50;;;;;;;2.63;1.63;;;19.00;59.40;;;;;;5053827;28;20202;-68
2022/12/28 10:25:21;;;;;;;1.63;1.33;;;18.90;59.30;;;;;;5019602;28;20275;-67
2022/12/28 10:27:47;;;;;;;1.38;1.27;;;18.90;59.40;;;;;;5035424;28;20207;-67
2022/12/28 10:30:25;;;;;;;1.30;1.20;;;19.00;59.40;;;;;;5026925;28;20181;-67
2022/12/28 10:32:59;;;;;;;1.20;1.10;;;19.00;59.40;;;;;;5042964;28;20704;-67
2022/12/28 10:35:37;;;;;;;1.88;1.13;;;19.00;59.40;;;;;;5039004;28;20672;-67
2022/12/28 10:38:19;;;;;;;2.25;1.30;;;19.00;59.40;;;;;;5033141;28;20190;-67
2022/12/28 10:40:56;;;;;;;1.85;1.50;;;19.00;59.80;;;;;;5015081;28;20215;-66
2022/12/28 10:43:27;;;;;;;1.33;1.20;;;19.00;59.80;;;;;;5039642;28;20207;-67
2022/12/28 10:45:54;;;;;;;1.40;1.30;;;19.00;59.80;;;;;;5039830;28;20183;-67
2022/12/28 10:48:38;;;;;;;3.60;1.30;;;19.00;59.80;;;;;;5057129;28;20187;-67
2022/12/28 10:51:13;;;;;;;2.17;1.00;;;19.00;59.80;;;;;;5025103;28;20186;-67
2022/12/28 10:53:38;;;;;;;1.98;1.10;;;19.00;59.80;;;;;;5067807;28;20363;-68
2022/12/28 10:56:13;;;;;;;1.88;1.17;;;19.00;59.80;;;;;;5026208;28;20213;-67
2022/12/28 10:58:49;;;;;;;2.15;1.17;;;19.00;59.80;;;;;;5031386;28;20209;-67
2022/12/28 11:01:28;;;;;;;1.55;1.40;;;19.00;59.80;;;;;;5045187;28;20213;-67
2022/12/28 11:03:54;;;;;;;1.42;1.33;;;19.00;59.80;;;;;;5047535;28;20298;-66
2022/12/28 11:06:24;;;;;;;1.20;1.10;;;19.00;59.80;;;;;;5040201;28;20277;-67
2022/12/28 11:09:15;;;;;;;1.63;1.20;;;19.00;59.80;;;;;;5031140;28;20187;-67
2022/12/28 11:11:44;;;;;;;2.38;1.50;;;19.00;59.80;;;;;;5037711;28;20182;-67
2022/12/28 11:14:17;;;;;;;1.50;1.40;;;19.00;59.80;;;;;;5031581;28;20226;-67
2022/12/28 11:16:44;;;;;;;1.42;1.33;;;19.00;59.80;;;;;;5021759;28;20273;-67
2022/12/28 11:19:11;;;;;;;0.98;0.98;;;19.00;59.80;;;;;;5041952;28;20713;-68
2022/12/28 11:21:39;;;;;;;1.30;1.20;;;19.00;59.70;;;;;;5044806;28;20469;-67
2022/12/28 11:24:06;;;;;;;1.63;1.17;;;19.00;59.70;;;;;;5046968;28;20293;-67
2022/12/28 11:26:32;;;;;;;1.55;1.10;;;19.00;59.70;;;;;;5038899;28;20187;-68
2022/12/28 11:29:00;;;;;;;1.30;1.20;;;19.00;59.80;;;;;;5047102;28;20654;-67
2022/12/28 11:31:42;;;;;;;2.08;1.35;;;19.10;59.80;;;;;;5040052;28;20186;-67
2022/12/28 11:34:18;;;;;;;1.38;1.10;;;19.00;59.70;;;;;;5042320;28;20697;-68
2022/12/28 11:36:45;;;;;;;2.65;1.15;;;19.00;59.70;;;;;;5063515;28;20689;-68
2022/12/28 11:39:26;;;;;;;2.33;1.50;;;19.00;59.80;;;;;;5031885;28;20592;-67
2022/12/28 11:41:53;;;;;;;1.33;1.20;;;19.00;59.80;;;;;;5056329;28;20187;-67
2022/12/28 11:44:42;;;;;;;1.77;1.45;;;19.00;59.80;;;;;;5047048;28;20206;-67
2022/12/28 11:47:25;;;;;;;1.92;1.25;;;19.00;59.80;;;;;;5039468;28;20193;-67
2022/12/28 11:49:52;;;;;;;3.35;1.20;;;19.10;59.70;;;;;;5046936;28;20720;-67
2022/12/28 11:52:32;;;;;;;1.52;1.15;;;19.10;59.70;;;;;;5039712;28;20655;-66
2022/12/28 11:55:20;;;;;;;1.23;1.13;;;19.00;59.60;;;;;;5061916;28;20229;-67
2022/12/28 11:57:46;;;;;;;2.63;1.20;;;19.10;59.80;;;;;;5026812;28;20215;-68
2022/12/28 12:00:18;;;;;;;1.85;1.13;;;19.00;59.80;;;;;;5034832;28;20633;-67
2022/12/28 12:02:59;;;;;;;2.15;1.20;;;19.00;59.80;;;;;;5047380;28;20282;-67
2022/12/28 12:05:37;;;;;;;1.08;1.08;;;19.00;59.70;;;;;;5036050;28;20655;-67
2022/12/28 12:08:09;;;;;;;1.88;1.08;;;19.00;59.70;;;;;;5038886;28;20209;-67
2022/12/28 12:10:37;;;;;;;2.00;1.45;;;19.00;59.60;;;;;;5045145;28;20227;-67
2022/12/28 12:13:26;;;;;;;1.92;1.25;;;19.00;59.60;;;;;;5064973;28;20771;-67
2022/12/28 12:16:04;;;;;;;1.88;1.38;;;19.00;59.60;;;;;;5050632;28;20196;-70
2022/12/28 12:18:44;;;;;;;2.90;1.35;;;19.10;59.70;;;;;;5046630;28;20645;-67
2022/12/28 12:21:30;;;;;;;1.23;0.95;;;19.10;59.70;;;;;;5050737;28;20246;-68
2022/12/28 12:24:18;;;;;;;1.42;1.33;;;19.10;59.70;;;;;;5068903;28;20225;-68
2022/12/28 12:27:14;;;;;;;2.17;1.27;;;19.10;59.90;;;;;;5047331;28;20188;-67
2022/12/28 12:29:46;;;;;;;1.42;1.10;;;19.00;59.70;;;;;;5051978;28;20198;-67
2022/12/28 12:32:21;;;;;;;1.20;1.10;;;19.00;59.70;;;;;;5029422;28;20198;-67
2022/12/28 12:34:57;;;;;;;1.77;1.30;;;19.00;59.70;;;;;;5052935;28;20297;-68
2022/12/28 12:38:20;;;;;;;1.85;1.10;;;19.00;59.70;;;;;;5042065;28;20191;-67
2022/12/28 12:41:07;;;;;;;1.10;1.00;;;19.00;59.80;;;;;;5032587;28;20221;-67
2022/12/28 12:44:14;;;;;;;1.27;1.00;;;19.10;59.70;;;;;;5028264;28;20210;-68
2022/12/28 12:47:05;;;;;;;1.10;0.90;;;19.10;59.80;;;;;;5042123;28;20195;-67
2022/12/28 12:50:06;;;;;;;1.65;1.27;;;19.10;59.80;;;;;;5045758;28;20218;-67
2022/12/28 12:53:05;;;;;;;1.48;1.10;;;19.10;59.80;;;;;;5031696;28;20194;-66
2022/12/28 12:55:55;;;;;;;2.35;0.95;;;19.10;59.80;;;;;;5019029;28;20245;-67
2022/12/28 12:58:43;;;;;;;1.73;1.13;;;19.10;59.70;;;;;;5052577;28;20198;-68
2022/12/28 13:01:46;;;;;;;1.63;1.20;;;19.10;59.70;;;;;;5069169;28;20322;-67
2022/12/28 13:04:24;;;;;;;2.03;1.30;;;19.10;59.80;;;;;;5027606;28;20685;-67
2022/12/28 13:06:59;;;;;;;1.48;1.10;;;19.10;59.80;;;;;;5053018;28;20190;-68
2022/12/28 13:09:29;;;;;;;1.83;1.13;;;19.10;59.70;;;;;;5032588;28;20680;-67
2022/12/28 13:11:57;;;;;;;2.42;1.30;;;19.10;59.70;;;;;;5034104;28;20274;-67
2022/12/28 13:14:24;;;;;;;1.67;1.15;;;19.10;59.80;;;;;;5061179;28;20216;-67
2022/12/28 13:16:54;;;;;;;1.92;1.27;;;19.10;59.70;;;;;;5052539;28;20316;-67
2022/12/28 13:19:24;;;;;;;1.75;1.20;;;19.10;59.70;;;;;;5049028;28;20215;-67
2022/12/28 13:21:52;;;;;;;2.47;1.20;;;19.10;59.80;;;;;;5061473;28;20246;-67
2022/12/28 13:24:28;;;;;;;1.58;1.10;;;19.10;59.70;;;;;;5044503;28;20210;-68
2022/12/28 13:26:57;;;;;;;3.17;1.23;;;19.10;59.80;;;;;;5044103;28;20198;-67
2022/12/28 13:29:37;;;;;;;1.20;1.10;;;19.10;59.70;;;;;;5039663;28;20186;-67
2022/12/28 13:32:03;;;;;;;1.20;1.02;;;19.10;59.70;;;;;;5052004;28;20187;-67
2022/12/28 13:34:34;;;;;;;1.60;1.40;;;19.10;59.70;;;;;;5065573;28;20662;-67
2022/12/28 13:37:13;;;;;;;2.65;1.40;;;19.10;59.70;;;;;;5040654;28;20234;-66
2022/12/28 13:39:38;;;;;;;2.45;1.10;;;19.10;59.70;;;;;;5022102;28;20219;-67
2022/12/28 13:42:14;;;;;;;1.50;1.05;;;19.10;59.80;;;;;;5040392;28;20185;-67
2022/12/28 13:44:48;;;;;;;2.38;1.20;;;19.10;59.70;;;;;;5032318;28;20214;-67